< < Back
Terminal Aerodrome Forecast


Current Version              Previous Versions:   1  2  3  4  5  6  7  8  9  

Terminal Aerodrome Forecast

196
FTUS42 KCHS 302119 AAA
TAFCHS
TAF AMD
KCHS 302119Z 3021/3118 31008KT P6SM -RA SCT015 BKN025
      TEMPO 3022/3024 6SM RA SCT009 BKN015
     FM310000 34006KT P6SM SCT007 BKN020=

Latest METAR

618
SAUS80 KWBC 310000 RRA
MTRCHS
METAR KCHS 302356Z 32007KT 10SM BKN015 BKN065 BKN090 23/21 A2987 RMK AO2
RAB16E51 SLP115 P0000 60012 T02280211 10250 20228 53004


USA.gov is the U.S. government's official web portal to all federal, state and local government web resources and services.